Svinoy — V7RM5 — position and weather

sailwx.info

Track history (hours):
 
Tides and Currents Weather Stations Pressure Air Temp Water Temp Dewpoint Dewpoint Depression Visibility Wind Speed Wind Dir Waves Ship Positions

Svinoy

Last reported at 2017-Jun-27 00:39 UTC. Time now 2017-Jun-27 02:00 UTC.
Position N 55°13' E 011°06'.

Length 190 m; draft 11.1 m.

Type: Cargo ship. MMSI: 538003541.

Date/timePositionNaut miles runAvg speedWind from/ knotsBaromVisibWave heightAir tempDewpointWater temp
2017-Jun-27 00:39N 55°13' E 011°06'1 9.7
2017-Jun-27 00:30N 55°12' E 011°05'510.4
2017-Jun-27 00:00N 55°07' E 010°59'510.5
2017-Jun-26 23:30N 55°02' E 010°60'5 9.6
2017-Jun-26 23:00N 54°58' E 010°56'510.1
2017-Jun-26 22:30N 54°54' E 010°51'5 9.8
2017-Jun-26 22:01N 54°49' E 010°50'5 9.7
2017-Jun-26 21:30N 54°44' E 010°47'4 8.7
2017-Jun-26 21:00N 54°40' E 010°48'510.0
2017-Jun-26 20:30N 54°38' E 010°55'510.3
2017-Jun-26 20:00N 54°36' E 011°04'510.3
2017-Jun-26 19:30N 54°36' E 011°13'5 9.7
2017-Jun-26 19:00N 54°33' E 011°20'510.0
2017-Jun-26 18:30N 54°31' E 011°28'2010.1
2017-Jun-26 16:32N 54°26' E 012°01'010.5
2017-Jun-26 16:30N 54°26' E 012°02'7 9.3
2017-Jun-26 15:47N 54°29' E 012°13'311.2
2017-Jun-26 15:30N 54°32' E 012°14'5 9.9
2017-Jun-26 15:00N 54°36' E 012°18'4 7.6
2017-Jun-26 14:30N 54°39' E 012°23'3910.7
2017-Jun-26 10:51N 54°56' E 013°24'411.3
2017-Jun-26 10:30N 54°57' E 013°30'611.1
2017-Jun-26 10:00N 54°59' E 013°39'710.8
2017-Jun-26 09:20N 55°02' E 013°51'310.4
2017-Jun-26 09:00N 55°04' E 013°56'510.5
2017-Jun-26 08:30N 55°05' E 014°05'510.9
2017-Jun-26 08:00N 55°09' E 014°11'510.9
2017-Jun-26 07:30N 55°13' E 014°17'611.2
2017-Jun-26 07:01N 55°17' E 014°23'611.3
2017-Jun-26 06:31N 55°22' E 014°30'511.0
2017-Jun-26 06:01N 55°26' E 014°36'510.8
2017-Jun-26 05:30N 55°28' E 014°44'510.7
2017-Jun-26 05:01N 55°31' E 014°53'510.6
2017-Jun-26 04:30N 55°33' E 015°01'510.7
2017-Jun-26 04:00N 55°36' E 015°09'510.7
2017-Jun-26 03:30N 55°38' E 015°18'510.6
2017-Jun-26 03:00N 55°39' E 015°27'510.8
2017-Jun-26 02:31N 55°40' E 015°36'510.9
2017-Jun-26 02:00N 55°42' E 015°46'611.1
2017-Jun-26 01:30N 55°43' E 015°55'611.1
2017-Jun-26 01:00N 55°44' E 016°05'611.4
2017-Jun-26 00:30N 55°46' E 016°15'611.5
2017-Jun-26 00:00N 55°47' E 016°25'611.5
2017-Jun-25 23:30N 55°49' E 016°34'611.4
2017-Jun-25 23:00N 55°50' E 016°44'611.4
2017-Jun-25 22:30N 55°51' E 016°54'611.3
2017-Jun-25 22:00N 55°53' E 017°04'611.3
2017-Jun-25 21:30N 55°54' E 017°14'611.2
2017-Jun-25 21:00N 55°56' E 017°24'511.1
2017-Jun-25 20:30N 55°57' E 017°33'611.2
2017-Jun-25 20:00N 55°59' E 017°42'611.2
2017-Jun-25 19:30N 56°02' E 017°51'611.2
2017-Jun-25 19:00N 56°05' E 017°60'16711.0
2017-Jun-25 03:54N 58°25' E 020°46'2011.4
2017-Jun-25 02:10N 58°42' E 021°07'211.4
2017-Jun-25 02:00N 58°44' E 021°09'611.5
2017-Jun-25 01:31N 58°48' E 021°14'611.6
2017-Jun-25 01:01N 58°53' E 021°20'611.6
2017-Jun-25 00:31N 58°58' E 021°26'611.7
2017-Jun-25 00:00N 59°03' E 021°32'611.7
2017-Jun-24 23:31N 59°08' E 021°39'611.6
2017-Jun-24 23:01N 59°12' E 021°47'611.8
2017-Jun-24 22:31N 59°16' E 021°56'611.7
2017-Jun-24 22:00N 59°19' E 022°05'611.5
2017-Jun-24 21:31N 59°23' E 022°14'611.4
2017-Jun-24 21:00N 59°26' E 022°23'611.5
2017-Jun-24 20:31N 59°30' E 022°32'611.9
2017-Jun-24 20:00N 59°32' E 022°43'611.9
2017-Jun-24 19:31N 59°33' E 022°54'611.8
2017-Jun-24 19:00N 59°35' E 023°05'611.8
2017-Jun-24 18:31N 59°37' E 023°16'611.7
2017-Jun-24 18:01N 59°39' E 023°27'611.8
2017-Jun-24 17:31N 59°40' E 023°39'611.9
2017-Jun-24 17:01N 59°42' E 023°50'612.3
2017-Jun-24 16:31N 59°44' E 024°02'612.3
2017-Jun-24 16:00N 59°46' E 024°13'612.3
2017-Jun-24 15:31N 59°47' E 024°25'612.4
2017-Jun-24 15:00N 59°48' E 024°37'1212.3
2017-Jun-24 14:01N 59°51' E 025°01'612.5
2017-Jun-24 13:30N 59°52' E 025°13'612.5
2017-Jun-24 13:01N 59°53' E 025°26'612.5
2017-Jun-24 12:31N 59°54' E 025°38'612.4
2017-Jun-24 12:00N 59°55' E 025°50'612.3
2017-Jun-24 11:31N 59°57' E 026°02'612.3
2017-Jun-24 11:01N 59°59' E 026°14'612.3
2017-Jun-24 10:31N 60°00' E 026°25'612.0
2017-Jun-24 10:01N 60°01' E 026°37'612.2
2017-Jun-24 09:31N 60°00' E 026°49'612.0
2017-Jun-24 09:01N 59°59' E 027°01'611.6
2017-Jun-24 08:31N 60°02' E 027°12'612.0
2017-Jun-24 08:00N 60°05' E 027°22'612.1
2017-Jun-24 07:31N 60°08' E 027°32'612.1
2017-Jun-24 07:01N 60°11' E 027°42'611.1
2017-Jun-24 06:30N 60°11' E 027°54'612.0
2017-Jun-24 06:01N 60°10' E 028°05'612.0
2017-Jun-24 05:31N 60°08' E 028°17'611.9
2017-Jun-24 05:00N 60°04' E 028°26'510.8
2017-Jun-24 04:31N 60°03' E 028°37'5 9.7
2017-Jun-24 04:01N 59°58' E 028°36'4 7.7
2017-Jun-24 03:31N 59°55' E 028°33'611.0
2017-Jun-24 03:00N 59°50' E 028°26'5 9.9
2017-Jun-24 02:31N 59°45' E 028°24'3 6.5
2017-Jun-24 02:01N 59°42' E 028°25'0 0.6
2017-Jun-24 01:29N 59°42' E 028°26'0 0.0
2017-Jun-24 00:59N 59°42' E 028°26'0 0.0
2017-Jun-24 00:29N 59°42' E 028°26'0 0.0
2017-Jun-23 23:56N 59°42' E 028°26'0 0.0
2017-Jun-23 23:29N 59°42' E 028°26'0 0.0
2017-Jun-23 22:59N 59°42' E 028°26'0 0.0
2017-Jun-23 22:26N 59°42' E 028°26'0 0.0
2017-Jun-23 21:59N 59°42' E 028°26'0 0.0
2017-Jun-23 21:29N 59°42' E 028°26'0 0.0
2017-Jun-23 20:59N 59°42' E 028°26'0 0.0
2017-Jun-23 20:29N 59°42' E 028°26'0 0.0
2017-Jun-23 19:59N 59°42' E 028°26'0 0.0
2017-Jun-23 19:29N 59°42' E 028°26'0 0.0
2017-Jun-23 18:59N 59°42' E 028°26'0 0.0
2017-Jun-23 18:29N 59°42' E 028°26'0 0.0
2017-Jun-23 17:59N 59°42' E 028°26'0 0.0
2017-Jun-23 17:29N 59°42' E 028°26'0 0.0
2017-Jun-23 16:59N 59°42' E 028°26'0 0.0
2017-Jun-23 16:29N 59°42' E 028°26'0 0.0
2017-Jun-23 15:59N 59°42' E 028°26'0 0.0
2017-Jun-23 15:29N 59°42' E 028°26'0 0.0
2017-Jun-23 14:59N 59°42' E 028°26'0 0.0
2017-Jun-23 13:59N 59°42' E 028°26'0 0.0
2017-Jun-23 13:20N 59°42' E 028°26'0 0.0
2017-Jun-23 12:59N 59°42' E 028°26'0 0.0
2017-Jun-23 12:20N 59°42' E 028°26'0 0.0
2017-Jun-23 11:50N 59°42' E 028°26'0 0.0
2017-Jun-23 11:20N 59°42' E 028°26'0 0.0
2017-Jun-23 10:53N 59°42' E 028°26'0 0.0
2017-Jun-23 10:20N 59°42' E 028°26'0 0.0
2017-Jun-23 09:53N 59°42' E 028°26'0 0.0
2017-Jun-23 09:20N 59°42' E 028°26'0 0.0
2017-Jun-23 08:53N 59°42' E 028°26'0 0.0
2017-Jun-23 08:23N 59°42' E 028°26'0 0.0
2017-Jun-23 07:56N 59°42' E 028°26'0 0.0
2017-Jun-23 07:26N 59°42' E 028°26'0 0.0
2017-Jun-23 06:56N 59°42' E 028°26'0 0.0
2017-Jun-23 06:26N 59°42' E 028°26'0 0.0
2017-Jun-23 05:56N 59°42' E 028°26'0 0.0
2017-Jun-23 05:29N 59°42' E 028°26'0 0.0
2017-Jun-23 04:59N 59°42' E 028°26'0 0.0
2017-Jun-23 04:29N 59°42' E 028°26'0 0.0
2017-Jun-23 03:59N 59°42' E 028°26'0 0.0
2017-Jun-23 03:29N 59°42' E 028°26'0 0.0
2017-Jun-23 02:59N 59°42' E 028°26'0 0.0
2017-Jun-23 02:29N 59°42' E 028°26'0 0.0
2017-Jun-23 01:59N 59°42' E 028°26'0 0.0
2017-Jun-23 01:29N 59°42' E 028°26'0 0.0
2017-Jun-23 00:59N 59°42' E 028°26'0 0.0
2017-Jun-23 00:29N 59°42' E 028°26'0 0.0
2017-Jun-22 23:59N 59°42' E 028°26'0 0.0
2017-Jun-22 23:26N 59°42' E 028°26'0 0.0
2017-Jun-22 22:59N 59°42' E 028°26'0 0.0
2017-Jun-22 22:29N 59°42' E 028°26'0 0.0
2017-Jun-22 21:59N 59°42' E 028°26'0 0.0
2017-Jun-22 21:29N 59°42' E 028°26'0 0.0
2017-Jun-22 20:59N 59°42' E 028°26'0 0.0
2017-Jun-22 20:26N 59°42' E 028°26'0 0.0
2017-Jun-22 19:59N 59°42' E 028°26'0 0.0
2017-Jun-22 19:29N 59°42' E 028°26'0 0.0
2017-Jun-22 18:59N 59°42' E 028°26'0 0.0
2017-Jun-22 18:29N 59°42' E 028°26'0 0.0
2017-Jun-22 17:59N 59°42' E 028°26'0 0.0
2017-Jun-22 17:26N 59°42' E 028°26'0 0.0
2017-Jun-22 16:59N 59°42' E 028°26'0 0.0
2017-Jun-22 16:29N 59°42' E 028°26'0 0.0
2017-Jun-22 15:59N 59°42' E 028°26'0 0.0
2017-Jun-22 15:29N 59°42' E 028°26'0 0.0
2017-Jun-22 14:59N 59°42' E 028°26'0 0.0
2017-Jun-22 14:29N 59°42' E 028°26'0 0.0
2017-Jun-22 13:29N 59°42' E 028°26'0 0.0
2017-Jun-22 12:59N 59°42' E 028°26'0 0.0
2017-Jun-22 12:29N 59°42' E 028°26'0 0.0
2017-Jun-22 11:59N 59°42' E 028°26'0 0.0
2017-Jun-22 11:29N 59°42' E 028°26'0 0.0
2017-Jun-22 10:59N 59°42' E 028°26'0 0.0
2017-Jun-22 10:29N 59°42' E 028°26'0 0.0
2017-Jun-22 09:59N 59°42' E 028°26'0 0.0
2017-Jun-22 09:29N 59°42' E 028°26'0 0.0
2017-Jun-22 08:59N 59°42' E 028°26'0 0.0
2017-Jun-22 08:29N 59°42' E 028°26'0 0.0
2017-Jun-22 07:59N 59°42' E 028°26'0 0.0
2017-Jun-22 07:29N 59°42' E 028°26'0 0.0
2017-Jun-22 06:59N 59°42' E 028°26'0 0.0
2017-Jun-22 06:29N 59°42' E 028°26'0 0.0
2017-Jun-22 05:59N 59°42' E 028°26'0 0.0
2017-Jun-22 05:23N 59°42' E 028°26'0 0.0
2017-Jun-22 04:59N 59°42' E 028°26'0 0.0
2017-Jun-22 04:26N 59°42' E 028°26'0 0.0
2017-Jun-22 03:59N 59°42' E 028°26'0 0.0
2017-Jun-22 03:26N 59°42' E 028°26'0 0.1
2017-Jun-22 03:00N 59°42' E 028°26'1 1.5
2017-Jun-22 02:30N 59°42' E 028°24'4 7.6
2017-Jun-22 02:00N 59°46' E 028°24'3 6.0
2017-Jun-22 01:30N 59°49' E 028°25'3 5.6
2017-Jun-22 01:01N 59°51' E 028°27'3 5.6
2017-Jun-22 00:31N 59°53' E 028°30'3 5.7
2017-Jun-22 00:00N 59°56' E 028°34'3 4.9
2017-Jun-21 23:29N 59°55' E 028°39'0 0.2
2017-Jun-21 22:59N 59°55' E 028°39'0 0.0
2017-Jun-21 22:29N 59°55' E 028°39'0 0.0
2017-Jun-21 21:59N 59°55' E 028°39'0 0.0
2017-Jun-21 21:29N 59°55' E 028°39'0 0.0
2017-Jun-21 20:59N 59°55' E 028°39'0 0.0
2017-Jun-21 20:29N 59°55' E 028°39'0 0.0
2017-Jun-21 19:59N 59°55' E 028°39'0 0.0
2017-Jun-21 19:29N 59°55' E 028°39'0 0.0
2017-Jun-21 18:59N 59°55' E 028°39'0 0.0
2017-Jun-21 18:26N 59°55' E 028°39'0 0.0
2017-Jun-21 17:59N 59°55' E 028°39'0 0.1
2017-Jun-21 17:29N 59°55' E 028°39'0 0.1
2017-Jun-21 16:59N 59°55' E 028°39'0 0.1
2017-Jun-21 16:29N 59°55' E 028°39'0 0.0
2017-Jun-21 15:59N 59°55' E 028°39'0 0.0
2017-Jun-21 15:26N 59°55' E 028°39'0 0.0
2017-Jun-21 14:59N 59°55' E 028°39'0 0.1
2017-Jun-21 14:29N 59°55' E 028°39'0 0.1
2017-Jun-21 13:29N 59°55' E 028°39'0 0.0
2017-Jun-21 12:59N 59°55' E 028°39'0 0.0
2017-Jun-21 12:29N 59°55' E 028°39'0 0.0
2017-Jun-21 11:59N 59°55' E 028°39'0 0.0
2017-Jun-21 11:29N 59°55' E 028°39'0 0.0
2017-Jun-21 10:59N 59°55' E 028°39'0 0.0
2017-Jun-21 10:29N 59°55' E 028°39'0 0.0
2017-Jun-21 09:59N 59°55' E 028°39'0 0.0
2017-Jun-21 09:29N 59°55' E 028°39'0 0.1
2017-Jun-21 08:59N 59°55' E 028°39'0 0.0
2017-Jun-21 08:29N 59°55' E 028°39'0 0.1
2017-Jun-21 07:59N 59°55' E 028°39'1 1.5
2017-Jun-21 07:30N 59°56' E 028°40'3 5.7
2017-Jun-21 07:00N 59°58' E 028°38'3 5.6
2017-Jun-21 06:30N 60°01' E 028°36'3 6.5
2017-Jun-21 06:00N 60°02' E 028°30'4 7.7
2017-Jun-21 05:30N 60°04' E 028°23'4 8.3
2017-Jun-21 05:00N 60°07' E 028°17'4 8.6
2017-Jun-21 04:30N 60°08' E 028°09'4 8.6
2017-Jun-21 04:00N 60°09' E 028°00'4 8.6
2017-Jun-21 03:30N 60°10' E 027°52'4 8.0
2017-Jun-21 03:00N 60°10' E 027°44'4 8.5
2017-Jun-21 02:30N 60°08' E 027°37'4 8.6
2017-Jun-21 02:00N 60°05' E 027°29'510.5
2017-Jun-21 01:30N 60°03' E 027°20'510.4
2017-Jun-21 01:00N 60°00' E 027°11'510.0
2017-Jun-21 00:30N 59°58' E 027°02'510.4
2017-Jun-21 00:01N 59°59' E 026°52'510.3
2017-Jun-20 23:30N 59°59' E 026°42'510.1
2017-Jun-20 23:00N 59°58' E 026°32'510.1
2017-Jun-20 22:30N 59°57' E 026°22'510.1
2017-Jun-20 22:00N 59°55' E 026°13'510.2
2017-Jun-20 21:30N 59°54' E 026°03'510.0
2017-Jun-20 21:00N 59°53' E 025°53'510.0
2017-Jun-20 20:30N 59°52' E 025°43'5 9.9
2017-Jun-20 20:00N 59°51' E 025°34'5 9.9
2017-Jun-20 19:30N 59°50' E 025°24'510.0
2017-Jun-20 19:01N 59°49' E 025°14'5 9.9
2017-Jun-20 18:30N 59°48' E 025°05'5 9.9
2017-Jun-20 18:00N 59°47' E 024°55'5 9.9
2017-Jun-20 17:30N 59°46' E 024°45'5 9.9
2017-Jun-20 17:00N 59°45' E 024°36'5 9.9
2017-Jun-20 16:30N 59°44' E 024°26'5 9.8
2017-Jun-20 16:00N 59°42' E 024°17'5 9.5
2017-Jun-20 15:30N 59°41' E 024°08'5 9.6
2017-Jun-20 15:00N 59°39' E 023°59'10 9.7
2017-Jun-20 14:00N 59°36' E 023°41'5 9.5
2017-Jun-20 13:30N 59°34' E 023°32'5 9.7
2017-Jun-20 13:00N 59°33' E 023°23'5 9.9
2017-Jun-20 12:30N 59°31' E 023°14'510.0
2017-Jun-20 12:00N 59°30' E 023°04'510.2
2017-Jun-20 11:30N 59°28' E 022°55'510.3
2017-Jun-20 11:00N 59°27' E 022°45'5 9.9
2017-Jun-20 10:30N 59°25' E 022°36'5 9.8
2017-Jun-20 10:00N 59°22' E 022°29'5 9.9
2017-Jun-20 09:30N 59°19' E 022°21'510.1
2017-Jun-20 09:00N 59°16' E 022°13'510.2
2017-Jun-20 08:30N 59°12' E 022°05'510.2
2017-Jun-20 08:00N 59°09' E 021°57'510.1
2017-Jun-20 07:30N 59°06' E 021°49'5 9.9
2017-Jun-20 07:00N 59°03' E 021°43'510.2
2017-Jun-20 06:30N 58°58' E 021°37'510.3
2017-Jun-20 06:00N 58°54' E 021°32'510.4
2017-Jun-20 05:29N 58°50' E 021°26'510.4
2017-Jun-20 05:00N 58°45' E 021°21'610.6
2017-Jun-20 04:27N 58°40' E 021°14'610.8
2017-Jun-20 03:51N 58°35' E 021°07'610.8
2017-Jun-20 03:17N 58°30' E 021°01'3110.6
2017-Jun-20 00:21N 58°04' E 020°28'410.7
2017-Jun-19 23:58N 58°00' E 020°25'1310.6
2017-Jun-19 22:46N 57°49' E 020°14'10810.5
2017-Jun-19 12:28N 56°14' E 018°39'510.8
2017-Jun-19 12:00N 56°12' E 018°31'510.7
2017-Jun-19 11:30N 56°09' E 018°23'610.7
2017-Jun-19 10:59N 56°06' E 018°14'710.6
2017-Jun-19 10:21N 56°03' E 018°04'2410.4
2017-Jun-19 08:04N 55°53' E 017°25'110.4
2017-Jun-19 08:00N 55°53' E 017°24'510.5
2017-Jun-19 07:30N 55°51' E 017°15'510.6
2017-Jun-19 07:00N 55°50' E 017°06'510.6
2017-Jun-19 06:30N 55°48' E 016°57'510.6
2017-Jun-19 06:00N 55°47' E 016°48'510.5
2017-Jun-19 05:30N 55°46' E 016°39'510.5
2017-Jun-19 05:00N 55°45' E 016°30'510.5
2017-Jun-19 04:30N 55°44' E 016°21'510.4
2017-Jun-19 04:00N 55°42' E 016°12'510.6
2017-Jun-19 03:30N 55°41' E 016°03'510.6
2017-Jun-19 03:00N 55°40' E 015°54'510.6
2017-Jun-19 02:30N 55°38' E 015°44'510.7
2017-Jun-19 02:00N 55°37' E 015°35'510.6
2017-Jun-19 01:30N 55°35' E 015°26'510.6
2017-Jun-19 01:00N 55°33' E 015°18'510.4
2017-Jun-19 00:31N 55°31' E 015°09'510.4
2017-Jun-19 00:00N 55°29' E 015°01'510.4
2017-Jun-18 23:30N 55°27' E 014°53'510.4
2017-Jun-18 23:00N 55°25' E 014°44'510.2
2017-Jun-18 22:30N 55°22' E 014°37'510.3
2017-Jun-18 22:00N 55°18' E 014°31'510.2
2017-Jun-18 21:31N 55°14' E 014°26'510.0
2017-Jun-18 21:00N 55°10' E 014°20'510.2
2017-Jun-18 20:31N 55°09' E 014°11'510.3
2017-Jun-18 20:00N 55°10' E 014°02'510.3
2017-Jun-18 19:31N 55°10' E 013°53'610.4
2017-Jun-18 18:58N 55°11' E 013°44'510.5
2017-Jun-18 18:29N 55°12' E 013°35'610.6
2017-Jun-18 17:56N 55°12' E 013°25'510.5
2017-Jun-18 17:27N 55°13' E 013°16'510.5
2017-Jun-18 17:00N 55°14' E 013°08'510.3
2017-Jun-18 16:30N 55°14' E 012°59'510.1
2017-Jun-18 16:00N 55°15' E 012°50'510.7
2017-Jun-18 15:30N 55°17' E 012°42'4 8.0
2017-Jun-18 15:00N 55°21' E 012°38'1010.1
2017-Jun-18 14:00N 55°30' E 012°43'4 8.6
2017-Jun-18 13:30N 55°34' E 012°48'4 8.7
2017-Jun-18 13:00N 55°37' E 012°53'5 9.0
2017-Jun-18 12:30N 55°41' E 012°55'611.8
2017-Jun-18 12:00N 55°46' E 012°49'611.6
2017-Jun-18 11:30N 55°52' E 012°45'612.0
2017-Jun-18 11:00N 55°57' E 012°42'612.4
2017-Jun-18 10:30N 56°03' E 012°39'611.6
2017-Jun-18 10:00N 56°07' E 012°31'4 7.7
2017-Jun-18 09:30N 56°09' E 012°25'510.5
2017-Jun-18 09:00N 56°12' E 012°18'510.4
2017-Jun-18 08:30N 56°15' E 012°10'510.0
2017-Jun-18 07:59N 56°19' E 012°03'510.6
2017-Jun-18 07:30N 56°24' E 012°01'3810.8
2017-Jun-18 03:59N 57°01' E 011°42'1110.4
2017-Jun-18 02:56N 57°11' E 011°35'510.9
2017-Jun-18 02:30N 57°15' E 011°32'511.0
2017-Jun-18 02:00N 57°21' E 011°29'611.3
2017-Jun-18 01:30N 57°26' E 011°26'510.5
2017-Jun-18 01:00N 57°30' E 011°20'611.0
2017-Jun-18 00:30N 57°34' E 011°12'611.3
2017-Jun-17 23:59N 57°38' E 011°04'711.3
2017-Jun-17 23:24N 57°42' E 010°55'511.2
2017-Jun-17 22:58N 57°46' E 010°49'611.6
2017-Jun-17 22:28N 57°50' E 010°41'611.4
2017-Jun-17 21:55N 57°52' E 010°30'511.6
2017-Jun-17 21:29N 57°52' E 010°20'612.9
2017-Jun-17 21:00N 57°52' E 010°08'612.3
2017-Jun-17 20:28N 57°50' E 009°56'612.5
2017-Jun-17 20:00N 57°47' E 009°48'612.6
2017-Jun-17 19:30N 57°44' E 009°37'612.7
2017-Jun-17 18:59N 57°40' E 009°27'612.7
2017-Jun-17 18:30N 57°37' E 009°17'912.5
2017-Jun-17 17:46N 57°32' E 009°03'512.5
2017-Jun-17 17:21N 57°29' E 008°55'612.4
2017-Jun-17 16:52N 57°26' E 008°46'512.6
2017-Jun-17 16:30N 57°23' E 008°39'1112.6
2017-Jun-17 15:35N 57°17' E 008°21'312.2
2017-Jun-17 15:19N 57°15' E 008°16'1511.5
2017-Jun-17 13:59N 57°05' E 007°55'1812.1
2017-Jun-17 12:29N 56°49' E 007°37'4210.0
2017-Jun-17 08:17N 56°11' E 007°04'2512.2
2017-Jun-17 06:14N 55°49' E 006°43'311.8
2017-Jun-17 05:59N 55°47' E 006°40'611.7
2017-Jun-17 05:27N 55°41' E 006°35'511.8
2017-Jun-17 05:00N 55°36' E 006°32'  
Track history (hours):
 
Tides and Currents Weather Stations Pressure Air Temp Water Temp Dewpoint Dewpoint Depression Visibility Wind Speed Wind Dir Waves Ship Positions

Svinoy

Last reported at 2017-Jun-27 00:39 UTC. Time now 2017-Jun-27 02:00 UTC.
Position N 55°13' E 011°06'.

Length 190 m; draft 11.1 m.

Type: Cargo ship. MMSI: 538003541.

Date/timePositionNaut miles runAvg speedWind from/ knotsBaromVisibWave heightAir tempDewpointWater temp
2017-Jun-27 00:39N 55°13' E 011°06'1 9.7
2017-Jun-27 00:30N 55°12' E 011°05'510.4
2017-Jun-27 00:00N 55°07' E 010°59'510.5
2017-Jun-26 23:30N 55°02' E 010°60'5 9.6
2017-Jun-26 23:00N 54°58' E 010°56'510.1
2017-Jun-26 22:30N 54°54' E 010°51'5 9.8
2017-Jun-26 22:01N 54°49' E 010°50'5 9.7
2017-Jun-26 21:30N 54°44' E 010°47'4 8.7
2017-Jun-26 21:00N 54°40' E 010°48'510.0
2017-Jun-26 20:30N 54°38' E 010°55'510.3
2017-Jun-26 20:00N 54°36' E 011°04'510.3
2017-Jun-26 19:30N 54°36' E 011°13'5 9.7
2017-Jun-26 19:00N 54°33' E 011°20'510.0
2017-Jun-26 18:30N 54°31' E 011°28'2010.1
2017-Jun-26 16:32N 54°26' E 012°01'010.5
2017-Jun-26 16:30N 54°26' E 012°02'7 9.3
2017-Jun-26 15:47N 54°29' E 012°13'311.2
2017-Jun-26 15:30N 54°32' E 012°14'5 9.9
2017-Jun-26 15:00N 54°36' E 012°18'4 7.6
2017-Jun-26 14:30N 54°39' E 012°23'3910.7
2017-Jun-26 10:51N 54°56' E 013°24'411.3
2017-Jun-26 10:30N 54°57' E 013°30'611.1
2017-Jun-26 10:00N 54°59' E 013°39'710.8
2017-Jun-26 09:20N 55°02' E 013°51'310.4
2017-Jun-26 09:00N 55°04' E 013°56'510.5
2017-Jun-26 08:30N 55°05' E 014°05'510.9
2017-Jun-26 08:00N 55°09' E 014°11'510.9
2017-Jun-26 07:30N 55°13' E 014°17'611.2
2017-Jun-26 07:01N 55°17' E 014°23'611.3
2017-Jun-26 06:31N 55°22' E 014°30'511.0
2017-Jun-26 06:01N 55°26' E 014°36'510.8
2017-Jun-26 05:30N 55°28' E 014°44'510.7
2017-Jun-26 05:01N 55°31' E 014°53'510.6
2017-Jun-26 04:30N 55°33' E 015°01'510.7
2017-Jun-26 04:00N 55°36' E 015°09'510.7
2017-Jun-26 03:30N 55°38' E 015°18'510.6
2017-Jun-26 03:00N 55°39' E 015°27'510.8
2017-Jun-26 02:31N 55°40' E 015°36'510.9
2017-Jun-26 02:00N 55°42' E 015°46'611.1
2017-Jun-26 01:30N 55°43' E 015°55'611.1
2017-Jun-26 01:00N 55°44' E 016°05'611.4
2017-Jun-26 00:30N 55°46' E 016°15'611.5
2017-Jun-26 00:00N 55°47' E 016°25'611.5
2017-Jun-25 23:30N 55°49' E 016°34'611.4
2017-Jun-25 23:00N 55°50' E 016°44'611.4
2017-Jun-25 22:30N 55°51' E 016°54'611.3
2017-Jun-25 22:00N 55°53' E 017°04'611.3
2017-Jun-25 21:30N 55°54' E 017°14'611.2
2017-Jun-25 21:00N 55°56' E 017°24'511.1
2017-Jun-25 20:30N 55°57' E 017°33'611.2
2017-Jun-25 20:00N 55°59' E 017°42'611.2
2017-Jun-25 19:30N 56°02' E 017°51'611.2
2017-Jun-25 19:00N 56°05' E 017°60'16711.0
2017-Jun-25 03:54N 58°25' E 020°46'2011.4
2017-Jun-25 02:10N 58°42' E 021°07'211.4
2017-Jun-25 02:00N 58°44' E 021°09'611.5
2017-Jun-25 01:31N 58°48' E 021°14'611.6
2017-Jun-25 01:01N 58°53' E 021°20'611.6
2017-Jun-25 00:31N 58°58' E 021°26'611.7
2017-Jun-25 00:00N 59°03' E 021°32'611.7
2017-Jun-24 23:31N 59°08' E 021°39'611.6
2017-Jun-24 23:01N 59°12' E 021°47'611.8
2017-Jun-24 22:31N 59°16' E 021°56'611.7
2017-Jun-24 22:00N 59°19' E 022°05'611.5
2017-Jun-24 21:31N 59°23' E 022°14'611.4
2017-Jun-24 21:00N 59°26' E 022°23'611.5
2017-Jun-24 20:31N 59°30' E 022°32'611.9
2017-Jun-24 20:00N 59°32' E 022°43'611.9
2017-Jun-24 19:31N 59°33' E 022°54'611.8
2017-Jun-24 19:00N 59°35' E 023°05'611.8
2017-Jun-24 18:31N 59°37' E 023°16'611.7
2017-Jun-24 18:01N 59°39' E 023°27'611.8
2017-Jun-24 17:31N 59°40' E 023°39'611.9
2017-Jun-24 17:01N 59°42' E 023°50'612.3
2017-Jun-24 16:31N 59°44' E 024°02'612.3
2017-Jun-24 16:00N 59°46' E 024°13'612.3
2017-Jun-24 15:31N 59°47' E 024°25'612.4
2017-Jun-24 15:00N 59°48' E 024°37'1212.3
2017-Jun-24 14:01N 59°51' E 025°01'612.5
2017-Jun-24 13:30N 59°52' E 025°13'612.5
2017-Jun-24 13:01N 59°53' E 025°26'612.5
2017-Jun-24 12:31N 59°54' E 025°38'612.4
2017-Jun-24 12:00N 59°55' E 025°50'612.3
2017-Jun-24 11:31N 59°57' E 026°02'612.3
2017-Jun-24 11:01N 59°59' E 026°14'612.3
2017-Jun-24 10:31N 60°00' E 026°25'612.0
2017-Jun-24 10:01N 60°01' E 026°37'612.2
2017-Jun-24 09:31N 60°00' E 026°49'612.0
2017-Jun-24 09:01N 59°59' E 027°01'611.6
2017-Jun-24 08:31N 60°02' E 027°12'612.0
2017-Jun-24 08:00N 60°05' E 027°22'612.1
2017-Jun-24 07:31N 60°08' E 027°32'612.1
2017-Jun-24 07:01N 60°11' E 027°42'611.1
2017-Jun-24 06:30N 60°11' E 027°54'612.0
2017-Jun-24 06:01N 60°10' E 028°05'612.0
2017-Jun-24 05:31N 60°08' E 028°17'611.9
2017-Jun-24 05:00N 60°04' E 028°26'510.8
2017-Jun-24 04:31N 60°03' E 028°37'5 9.7
2017-Jun-24 04:01N 59°58' E 028°36'4 7.7
2017-Jun-24 03:31N 59°55' E 028°33'611.0
2017-Jun-24 03:00N 59°50' E 028°26'5 9.9
2017-Jun-24 02:31N 59°45' E 028°24'3 6.5
2017-Jun-24 02:01N 59°42' E 028°25'0 0.6
2017-Jun-24 01:29N 59°42' E 028°26'0 0.0
2017-Jun-24 00:59N 59°42' E 028°26'0 0.0
2017-Jun-24 00:29N 59°42' E 028°26'0 0.0
2017-Jun-23 23:56N 59°42' E 028°26'0 0.0
2017-Jun-23 23:29N 59°42' E 028°26'0 0.0
2017-Jun-23 22:59N 59°42' E 028°26'0 0.0
2017-Jun-23 22:26N 59°42' E 028°26'0 0.0
2017-Jun-23 21:59N 59°42' E 028°26'0 0.0
2017-Jun-23 21:29N 59°42' E 028°26'0 0.0
2017-Jun-23 20:59N 59°42' E 028°26'0 0.0
2017-Jun-23 20:29N 59°42' E 028°26'0 0.0
2017-Jun-23 19:59N 59°42' E 028°26'0 0.0
2017-Jun-23 19:29N 59°42' E 028°26'0 0.0
2017-Jun-23 18:59N 59°42' E 028°26'0 0.0
2017-Jun-23 18:29N 59°42' E 028°26'0 0.0
2017-Jun-23 17:59N 59°42' E 028°26'0 0.0
2017-Jun-23 17:29N 59°42' E 028°26'0 0.0
2017-Jun-23 16:59N 59°42' E 028°26'0 0.0
2017-Jun-23 16:29N 59°42' E 028°26'0 0.0
2017-Jun-23 15:59N 59°42' E 028°26'0 0.0
2017-Jun-23 15:29N 59°42' E 028°26'0 0.0
2017-Jun-23 14:59N 59°42' E 028°26'0 0.0
2017-Jun-23 13:59N 59°42' E 028°26'0 0.0
2017-Jun-23 13:20N 59°42' E 028°26'0 0.0
2017-Jun-23 12:59N 59°42' E 028°26'0 0.0
2017-Jun-23 12:20N 59°42' E 028°26'0 0.0
2017-Jun-23 11:50N 59°42' E 028°26'0 0.0
2017-Jun-23 11:20N 59°42' E 028°26'0 0.0
2017-Jun-23 10:53N 59°42' E 028°26'0 0.0
2017-Jun-23 10:20N 59°42' E 028°26'0 0.0
2017-Jun-23 09:53N 59°42' E 028°26'0 0.0
2017-Jun-23 09:20N 59°42' E 028°26'0 0.0
2017-Jun-23 08:53N 59°42' E 028°26'0 0.0
2017-Jun-23 08:23N 59°42' E 028°26'0 0.0
2017-Jun-23 07:56N 59°42' E 028°26'0 0.0
2017-Jun-23 07:26N 59°42' E 028°26'0 0.0
2017-Jun-23 06:56N 59°42' E 028°26'0 0.0
2017-Jun-23 06:26N 59°42' E 028°26'0 0.0
2017-Jun-23 05:56N 59°42' E 028°26'0 0.0
2017-Jun-23 05:29N 59°42' E 028°26'0 0.0
2017-Jun-23 04:59N 59°42' E 028°26'0 0.0
2017-Jun-23 04:29N 59°42' E 028°26'0 0.0
2017-Jun-23 03:59N 59°42' E 028°26'0 0.0
2017-Jun-23 03:29N 59°42' E 028°26'0 0.0
2017-Jun-23 02:59N 59°42' E 028°26'0 0.0
2017-Jun-23 02:29N 59°42' E 028°26'0 0.0
2017-Jun-23 01:59N 59°42' E 028°26'0 0.0
2017-Jun-23 01:29N 59°42' E 028°26'0 0.0
2017-Jun-23 00:59N 59°42' E 028°26'0 0.0
2017-Jun-23 00:29N 59°42' E 028°26'0 0.0
2017-Jun-22 23:59N 59°42' E 028°26'0 0.0
2017-Jun-22 23:26N 59°42' E 028°26'0 0.0
2017-Jun-22 22:59N 59°42' E 028°26'0 0.0
2017-Jun-22 22:29N 59°42' E 028°26'0 0.0
2017-Jun-22 21:59N 59°42' E 028°26'0 0.0
2017-Jun-22 21:29N 59°42' E 028°26'0 0.0
2017-Jun-22 20:59N 59°42' E 028°26'0 0.0
2017-Jun-22 20:26N 59°42' E 028°26'0 0.0
2017-Jun-22 19:59N 59°42' E 028°26'0 0.0
2017-Jun-22 19:29N 59°42' E 028°26'0 0.0
2017-Jun-22 18:59N 59°42' E 028°26'0 0.0
2017-Jun-22 18:29N 59°42' E 028°26'0 0.0
2017-Jun-22 17:59N 59°42' E 028°26'0 0.0
2017-Jun-22 17:26N 59°42' E 028°26'0 0.0
2017-Jun-22 16:59N 59°42' E 028°26'0 0.0
2017-Jun-22 16:29N 59°42' E 028°26'0 0.0
2017-Jun-22 15:59N 59°42' E 028°26'0 0.0
2017-Jun-22 15:29N 59°42' E 028°26'0 0.0
2017-Jun-22 14:59N 59°42' E 028°26'0 0.0
2017-Jun-22 14:29N 59°42' E 028°26'0 0.0
2017-Jun-22 13:29N 59°42' E 028°26'0 0.0
2017-Jun-22 12:59N 59°42' E 028°26'0 0.0
2017-Jun-22 12:29N 59°42' E 028°26'0 0.0
2017-Jun-22 11:59N 59°42' E 028°26'0 0.0
2017-Jun-22 11:29N 59°42' E 028°26'0 0.0
2017-Jun-22 10:59N 59°42' E 028°26'0 0.0
2017-Jun-22 10:29N 59°42' E 028°26'0 0.0
2017-Jun-22 09:59N 59°42' E 028°26'0 0.0
2017-Jun-22 09:29N 59°42' E 028°26'0 0.0
2017-Jun-22 08:59N 59°42' E 028°26'0 0.0
2017-Jun-22 08:29N 59°42' E 028°26'0 0.0
2017-Jun-22 07:59N 59°42' E 028°26'0 0.0
2017-Jun-22 07:29N 59°42' E 028°26'0 0.0
2017-Jun-22 06:59N 59°42' E 028°26'0 0.0
2017-Jun-22 06:29N 59°42' E 028°26'0 0.0
2017-Jun-22 05:59N 59°42' E 028°26'0 0.0
2017-Jun-22 05:23N 59°42' E 028°26'0 0.0
2017-Jun-22 04:59N 59°42' E 028°26'0 0.0
2017-Jun-22 04:26N 59°42' E 028°26'0 0.0
2017-Jun-22 03:59N 59°42' E 028°26'0 0.0
2017-Jun-22 03:26N 59°42' E 028°26'0 0.1
2017-Jun-22 03:00N 59°42' E 028°26'1 1.5
2017-Jun-22 02:30N 59°42' E 028°24'4 7.6
2017-Jun-22 02:00N 59°46' E 028°24'3 6.0
2017-Jun-22 01:30N 59°49' E 028°25'3 5.6
2017-Jun-22 01:01N 59°51' E 028°27'3 5.6
2017-Jun-22 00:31N 59°53' E 028°30'3 5.7
2017-Jun-22 00:00N 59°56' E 028°34'3 4.9
2017-Jun-21 23:29N 59°55' E 028°39'0 0.2
2017-Jun-21 22:59N 59°55' E 028°39'0 0.0
2017-Jun-21 22:29N 59°55' E 028°39'0 0.0
2017-Jun-21 21:59N 59°55' E 028°39'0 0.0
2017-Jun-21 21:29N 59°55' E 028°39'0 0.0
2017-Jun-21 20:59N 59°55' E 028°39'0 0.0
2017-Jun-21 20:29N 59°55' E 028°39'0 0.0
2017-Jun-21 19:59N 59°55' E 028°39'0 0.0
2017-Jun-21 19:29N 59°55' E 028°39'0 0.0
2017-Jun-21 18:59N 59°55' E 028°39'0 0.0
2017-Jun-21 18:26N 59°55' E 028°39'0 0.0
2017-Jun-21 17:59N 59°55' E 028°39'0 0.1
2017-Jun-21 17:29N 59°55' E 028°39'0 0.1
2017-Jun-21 16:59N 59°55' E 028°39'0 0.1
2017-Jun-21 16:29N 59°55' E 028°39'0 0.0
2017-Jun-21 15:59N 59°55' E 028°39'0 0.0
2017-Jun-21 15:26N 59°55' E 028°39'0 0.0
2017-Jun-21 14:59N 59°55' E 028°39'0 0.1
2017-Jun-21 14:29N 59°55' E 028°39'0 0.1
2017-Jun-21 13:29N 59°55' E 028°39'0 0.0
2017-Jun-21 12:59N 59°55' E 028°39'0 0.0
2017-Jun-21 12:29N 59°55' E 028°39'0 0.0
2017-Jun-21 11:59N 59°55' E 028°39'0 0.0
2017-Jun-21 11:29N 59°55' E 028°39'0 0.0
2017-Jun-21 10:59N 59°55' E 028°39'0 0.0
2017-Jun-21 10:29N 59°55' E 028°39'0 0.0
2017-Jun-21 09:59N 59°55' E 028°39'0 0.0
2017-Jun-21 09:29N 59°55' E 028°39'0 0.1
2017-Jun-21 08:59N 59°55' E 028°39'0 0.0
2017-Jun-21 08:29N 59°55' E 028°39'0 0.1
2017-Jun-21 07:59N 59°55' E 028°39'1 1.5
2017-Jun-21 07:30N 59°56' E 028°40'3 5.7
2017-Jun-21 07:00N 59°58' E 028°38'3 5.6
2017-Jun-21 06:30N 60°01' E 028°36'3 6.5
2017-Jun-21 06:00N 60°02' E 028°30'4 7.7
2017-Jun-21 05:30N 60°04' E 028°23'4 8.3
2017-Jun-21 05:00N 60°07' E 028°17'4 8.6
2017-Jun-21 04:30N 60°08' E 028°09'4 8.6
2017-Jun-21 04:00N 60°09' E 028°00'4 8.6
2017-Jun-21 03:30N 60°10' E 027°52'4 8.0
2017-Jun-21 03:00N 60°10' E 027°44'4 8.5
2017-Jun-21 02:30N 60°08' E 027°37'4 8.6
2017-Jun-21 02:00N 60°05' E 027°29'510.5
2017-Jun-21 01:30N 60°03' E 027°20'510.4
2017-Jun-21 01:00N 60°00' E 027°11'510.0
2017-Jun-21 00:30N 59°58' E 027°02'510.4
2017-Jun-21 00:01N 59°59' E 026°52'510.3
2017-Jun-20 23:30N 59°59' E 026°42'510.1
2017-Jun-20 23:00N 59°58' E 026°32'510.1
2017-Jun-20 22:30N 59°57' E 026°22'510.1
2017-Jun-20 22:00N 59°55' E 026°13'510.2
2017-Jun-20 21:30N 59°54' E 026°03'510.0
2017-Jun-20 21:00N 59°53' E 025°53'510.0
2017-Jun-20 20:30N 59°52' E 025°43'5 9.9
2017-Jun-20 20:00N 59°51' E 025°34'5 9.9
2017-Jun-20 19:30N 59°50' E 025°24'510.0
2017-Jun-20 19:01N 59°49' E 025°14'5 9.9
2017-Jun-20 18:30N 59°48' E 025°05'5 9.9
2017-Jun-20 18:00N 59°47' E 024°55'5 9.9
2017-Jun-20 17:30N 59°46' E 024°45'5 9.9
2017-Jun-20 17:00N 59°45' E 024°36'5 9.9
2017-Jun-20 16:30N 59°44' E 024°26'5 9.8
2017-Jun-20 16:00N 59°42' E 024°17'5 9.5
2017-Jun-20 15:30N 59°41' E 024°08'5 9.6
2017-Jun-20 15:00N 59°39' E 023°59'10 9.7
2017-Jun-20 14:00N 59°36' E 023°41'5 9.5
2017-Jun-20 13:30N 59°34' E 023°32'5 9.7
2017-Jun-20 13:00N 59°33' E 023°23'5 9.9
2017-Jun-20 12:30N 59°31' E 023°14'510.0
2017-Jun-20 12:00N 59°30' E 023°04'510.2
2017-Jun-20 11:30N 59°28' E 022°55'510.3
2017-Jun-20 11:00N 59°27' E 022°45'5 9.9
2017-Jun-20 10:30N 59°25' E 022°36'5 9.8
2017-Jun-20 10:00N 59°22' E 022°29'5 9.9
2017-Jun-20 09:30N 59°19' E 022°21'510.1
2017-Jun-20 09:00N 59°16' E 022°13'510.2
2017-Jun-20 08:30N 59°12' E 022°05'510.2
2017-Jun-20 08:00N 59°09' E 021°57'510.1
2017-Jun-20 07:30N 59°06' E 021°49'5 9.9
2017-Jun-20 07:00N 59°03' E 021°43'510.2
2017-Jun-20 06:30N 58°58' E 021°37'510.3
2017-Jun-20 06:00N 58°54' E 021°32'510.4
2017-Jun-20 05:29N 58°50' E 021°26'510.4
2017-Jun-20 05:00N 58°45' E 021°21'610.6
2017-Jun-20 04:27N 58°40' E 021°14'610.8
2017-Jun-20 03:51N 58°35' E 021°07'610.8
2017-Jun-20 03:17N 58°30' E 021°01'3110.6
2017-Jun-20 00:21N 58°04' E 020°28'410.7
2017-Jun-19 23:58N 58°00' E 020°25'1310.6
2017-Jun-19 22:46N 57°49' E 020°14'10810.5
2017-Jun-19 12:28N 56°14' E 018°39'510.8
2017-Jun-19 12:00N 56°12' E 018°31'510.7
2017-Jun-19 11:30N 56°09' E 018°23'610.7
2017-Jun-19 10:59N 56°06' E 018°14'710.6
2017-Jun-19 10:21N 56°03' E 018°04'2410.4
2017-Jun-19 08:04N 55°53' E 017°25'110.4
2017-Jun-19 08:00N 55°53' E 017°24'510.5
2017-Jun-19 07:30N 55°51' E 017°15'510.6
2017-Jun-19 07:00N 55°50' E 017°06'510.6
2017-Jun-19 06:30N 55°48' E 016°57'510.6
2017-Jun-19 06:00N 55°47' E 016°48'510.5
2017-Jun-19 05:30N 55°46' E 016°39'510.5
2017-Jun-19 05:00N 55°45' E 016°30'510.5
2017-Jun-19 04:30N 55°44' E 016°21'510.4
2017-Jun-19 04:00N 55°42' E 016°12'510.6
2017-Jun-19 03:30N 55°41' E 016°03'510.6
2017-Jun-19 03:00N 55°40' E 015°54'510.6
2017-Jun-19 02:30N 55°38' E 015°44'510.7
2017-Jun-19 02:00N 55°37' E 015°35'510.6
2017-Jun-19 01:30N 55°35' E 015°26'510.6
2017-Jun-19 01:00N 55°33' E 015°18'510.4
2017-Jun-19 00:31N 55°31' E 015°09'510.4
2017-Jun-19 00:00N 55°29' E 015°01'510.4
2017-Jun-18 23:30N 55°27' E 014°53'510.4
2017-Jun-18 23:00N 55°25' E 014°44'510.2
2017-Jun-18 22:30N 55°22' E 014°37'510.3
2017-Jun-18 22:00N 55°18' E 014°31'510.2
2017-Jun-18 21:31N 55°14' E 014°26'510.0
2017-Jun-18 21:00N 55°10' E 014°20'510.2
2017-Jun-18 20:31N 55°09' E 014°11'510.3
2017-Jun-18 20:00N 55°10' E 014°02'510.3
2017-Jun-18 19:31N 55°10' E 013°53'610.4
2017-Jun-18 18:58N 55°11' E 013°44'510.5
2017-Jun-18 18:29N 55°12' E 013°35'610.6
2017-Jun-18 17:56N 55°12' E 013°25'510.5
2017-Jun-18 17:27N 55°13' E 013°16'510.5
2017-Jun-18 17:00N 55°14' E 013°08'510.3
2017-Jun-18 16:30N 55°14' E 012°59'510.1
2017-Jun-18 16:00N 55°15' E 012°50'510.7
2017-Jun-18 15:30N 55°17' E 012°42'4 8.0
2017-Jun-18 15:00N 55°21' E 012°38'1010.1
2017-Jun-18 14:00N 55°30' E 012°43'4 8.6
2017-Jun-18 13:30N 55°34' E 012°48'4 8.7
2017-Jun-18 13:00N 55°37' E 012°53'5 9.0
2017-Jun-18 12:30N 55°41' E 012°55'611.8
2017-Jun-18 12:00N 55°46' E 012°49'611.6
2017-Jun-18 11:30N 55°52' E 012°45'612.0
2017-Jun-18 11:00N 55°57' E 012°42'612.4
2017-Jun-18 10:30N 56°03' E 012°39'611.6
2017-Jun-18 10:00N 56°07' E 012°31'4 7.7
2017-Jun-18 09:30N 56°09' E 012°25'510.5
2017-Jun-18 09:00N 56°12' E 012°18'510.4
2017-Jun-18 08:30N 56°15' E 012°10'510.0
2017-Jun-18 07:59N 56°19' E 012°03'510.6
2017-Jun-18 07:30N 56°24' E 012°01'3810.8
2017-Jun-18 03:59N 57°01' E 011°42'1110.4
2017-Jun-18 02:56N 57°11' E 011°35'510.9
2017-Jun-18 02:30N 57°15' E 011°32'511.0
2017-Jun-18 02:00N 57°21' E 011°29'611.3
2017-Jun-18 01:30N 57°26' E 011°26'510.5
2017-Jun-18 01:00N 57°30' E 011°20'611.0
2017-Jun-18 00:30N 57°34' E 011°12'611.3
2017-Jun-17 23:59N 57°38' E 011°04'711.3
2017-Jun-17 23:24N 57°42' E 010°55'511.2
2017-Jun-17 22:58N 57°46' E 010°49'611.6
2017-Jun-17 22:28N 57°50' E 010°41'611.4
2017-Jun-17 21:55N 57°52' E 010°30'511.6
2017-Jun-17 21:29N 57°52' E 010°20'612.9
2017-Jun-17 21:00N 57°52' E 010°08'612.3
2017-Jun-17 20:28N 57°50' E 009°56'612.5
2017-Jun-17 20:00N 57°47' E 009°48'612.6
2017-Jun-17 19:30N 57°44' E 009°37'612.7
2017-Jun-17 18:59N 57°40' E 009°27'612.7
2017-Jun-17 18:30N 57°37' E 009°17'912.5
2017-Jun-17 17:46N 57°32' E 009°03'512.5
2017-Jun-17 17:21N 57°29' E 008°55'612.4
2017-Jun-17 16:52N 57°26' E 008°46'512.6
2017-Jun-17 16:30N 57°23' E 008°39'1112.6
2017-Jun-17 15:35N 57°17' E 008°21'312.2
2017-Jun-17 15:19N 57°15' E 008°16'1511.5
2017-Jun-17 13:59N 57°05' E 007°55'1812.1
2017-Jun-17 12:29N 56°49' E 007°37'4210.0
2017-Jun-17 08:17N 56°11' E 007°04'2512.2
2017-Jun-17 06:14N 55°49' E 006°43'311.8
2017-Jun-17 05:59N 55°47' E 006°40'611.7
2017-Jun-17 05:27N 55°41' E 006°35'511.8
2017-Jun-17 05:00N 55°36' E 006°32'  

Dump ship's entire track history